Time;durP1;ratioP1;P1;durP2;ratioP2;P2;SDS_P1;SDS_P2;PMS_P1;PMS_P2;Temp;Humidity;BMP_temperature;BMP_pressure;BME280_temperature;BME280_humidity;BME280_pressure;Samples;Min_cycle;Max_cycle;Signal;HPM_P1;HPM_P2
2022/04/21 00:01:40;;;;;;;8.57;5.03;;;7.70;72.70;;;6.52;57.40;96780.31;4932787;29;20415;-71
2022/04/21 00:04:06;;;;;;;5.28;4.32;;;7.60;73.00;;;6.47;57.69;96777.56;4933180;29;20447;-71
2022/04/21 00:06:33;;;;;;;6.77;5.07;;;7.50;73.10;;;6.41;58.03;96773.28;4933121;29;20822;-71
2022/04/21 00:08:59;;;;;;;6.35;5.13;;;7.50;73.50;;;6.37;58.36;96769.53;4933189;29;20417;-71
2022/04/21 00:11:25;;;;;;;6.93;5.30;;;7.50;74.10;;;6.35;58.25;96773.44;4932608;29;20426;-72
2022/04/21 00:13:51;;;;;;;6.18;5.10;;;7.40;74.10;;;6.33;58.65;96765.00;4933019;29;20478;-71
2022/04/21 00:16:17;;;;;;;7.00;4.90;;;7.40;74.80;;;6.30;58.68;96773.38;4933048;29;20846;-72
2022/04/21 00:18:46;;;;;;;6.43;4.73;;;7.40;75.00;;;6.23;59.02;96763.03;4933054;29;20477;-72
2022/04/21 00:21:11;;;;;;;5.80;4.78;;;7.30;75.30;;;6.19;59.39;96757.44;4932703;29;20408;-72
2022/04/21 00:23:39;;;;;;;5.80;4.80;;;7.30;75.70;;;6.14;59.62;96754.72;4932967;29;20507;-72
2022/04/21 00:26:05;;;;;;;6.15;4.68;;;7.20;76.20;;;6.12;59.63;96750.72;4932800;29;20435;-72
2022/04/21 00:28:31;;;;;;;6.83;5.23;;;7.30;76.10;;;6.15;59.52;96755.53;4932818;29;20419;-72
2022/04/21 00:30:58;;;;;;;6.10;4.85;;;7.20;76.00;;;6.09;59.78;96748.59;4931708;29;20427;-71
2022/04/21 00:33:23;;;;;;;8.00;5.00;;;7.20;76.50;;;6.05;59.92;96747.47;4931742;29;20838;-72
2022/04/21 00:35:49;;;;;;;6.55;5.28;;;7.10;76.90;;;6.00;60.25;96752.66;4931704;29;20411;-71
2022/04/21 00:38:15;;;;;;;6.13;4.90;;;7.10;77.20;;;5.96;60.44;96756.75;4931598;29;20411;-72
2022/04/21 00:40:42;;;;;;;8.25;5.50;;;7.10;77.30;;;5.93;60.65;96752.00;4931054;29;20430;-71
2022/04/21 00:43:09;;;;;;;8.97;5.30;;;7.00;77.50;;;5.90;60.86;96750.63;4931536;29;20412;-71
2022/04/21 00:45:35;;;;;;;8.13;5.65;;;7.00;78.10;;;5.86;61.15;96740.81;4931388;29;20431;-72
2022/04/21 00:48:05;;;;;;;7.82;5.47;;;7.00;78.80;;;5.82;61.42;96746.53;4931396;29;20415;-72
2022/04/21 00:50:36;;;;;;;7.45;5.70;;;6.90;79.00;;;5.77;61.49;96750.91;4931049;29;20762;-71
2022/04/21 00:53:03;;;;;;;6.85;5.55;;;6.90;79.20;;;5.72;61.79;96741.09;4931391;29;20465;-72
2022/04/21 00:55:31;;;;;;;6.53;5.18;;;6.80;79.60;;;5.71;61.69;96749.22;4931493;29;20510;-72
2022/04/21 00:58:01;;;;;;;5.45;4.93;;;6.80;79.70;;;5.69;61.87;96746.03;4931345;29;20878;-72
2022/04/21 01:00:27;;;;;;;8.82;5.38;;;6.80;79.90;;;5.68;61.88;96739.97;4930981;29;20545;-72
2022/04/21 01:02:54;;;;;;;6.10;5.25;;;6.80;80.20;;;5.65;61.83;96740.44;4931033;29;20420;-71
2022/04/21 01:05:29;;;;;;;7.33;5.50;;;6.80;80.20;;;5.62;62.02;96740.94;4937076;29;20419;-71
2022/04/21 01:07:56;;;;;;;8.70;5.60;;;6.70;80.50;;;5.58;62.35;96744.25;4934406;29;20407;-72
2022/04/21 01:10:24;;;;;;;7.13;4.93;;;6.70;80.80;;;5.56;62.32;96741.88;4932259;29;20438;-72
2022/04/21 01:12:50;;;;;;;9.77;6.15;;;6.70;81.00;;;5.57;62.85;96732.13;4933662;29;20886;-72
2022/04/21 01:15:17;;;;;;;7.32;5.80;;;6.70;81.60;;;5.52;62.98;96735.47;4931341;29;20889;-72
2022/04/21 01:17:43;;;;;;;5.82;5.22;;;6.60;82.00;;;5.50;63.30;96732.28;4931196;29;20422;-71
2022/04/21 01:20:13;;;;;;;8.07;5.72;;;6.60;82.20;;;5.52;63.15;96739.94;4930819;29;20443;-72
2022/04/21 01:22:39;;;;;;;7.90;5.90;;;6.60;82.10;;;5.49;62.85;96733.31;4931130;29;20785;-72
2022/04/21 01:25:06;;;;;;;6.88;5.57;;;6.60;82.10;;;5.43;63.21;96735.06;4931074;29;20419;-71
2022/04/21 01:27:35;;;;;;;9.80;6.50;;;6.60;82.40;;;5.44;63.32;96728.78;4931071;29;20408;-72
2022/04/21 01:30:03;;;;;;;8.57;6.10;;;6.60;82.70;;;5.42;63.08;96730.03;4904458;28;779222;-72
2022/04/21 01:32:31;;;;;;;6.78;5.82;;;6.60;82.60;;;5.38;63.26;96745.47;4934186;29;20718;-69
2022/04/21 01:34:57;;;;;;;7.53;6.07;;;6.50;82.50;;;5.38;63.38;96742.84;4933203;29;20407;-70
2022/04/21 01:42:54;;;;;;;8.18;6.13;;;6.40;83.50;;;5.23;63.96;96731.25;4931861;29;20423;-72
2022/04/21 01:45:21;;;;;;;8.73;6.45;;;6.40;83.80;;;5.22;64.09;96734.91;4931791;29;20816;-71
2022/04/21 01:47:47;;;;;;;10.18;6.07;;;6.40;84.00;;;5.16;64.44;96735.84;4931833;29;20759;-72
2022/04/21 01:50:13;;;;;;;7.87;6.57;;;6.30;84.40;;;5.17;64.52;96740.84;4931389;29;20449;-72
2022/04/21 01:52:41;;;;;;;11.27;7.57;;;6.30;84.80;;;5.20;64.43;96734.31;4931674;29;20514;-72
2022/04/21 01:55:08;;;;;;;9.27;7.25;;;6.30;84.80;;;5.20;64.54;96734.31;4931729;29;20408;-72
2022/04/21 01:57:34;;;;;;;9.93;6.73;;;6.30;84.90;;;5.10;64.68;96734.94;4931665;29;20510;-72
2022/04/21 02:00:00;;;;;;;6.70;5.70;;;6.20;85.30;;;5.06;65.38;96731.19;4931567;29;20506;-72
2022/04/21 02:02:26;;;;;;;10.95;7.00;;;6.20;85.90;;;5.04;65.49;96733.22;4931090;29;20434;-71
2022/04/21 02:04:52;;;;;;;8.73;5.80;;;6.20;86.20;;;5.00;65.64;96730.28;4931452;29;20444;-72
2022/04/21 02:07:18;;;;;;;7.78;6.47;;;6.10;86.40;;;4.97;65.84;96729.94;4931469;29;20517;-72
2022/04/21 02:09:45;;;;;;;7.72;6.60;;;6.10;86.90;;;4.96;66.09;96731.75;4931360;29;20438;-71
2022/04/21 02:12:11;;;;;;;12.85;7.22;;;6.10;87.20;;;4.96;66.12;96726.50;4930950;29;20407;-71
2022/04/21 02:14:37;;;;;;;8.02;6.85;;;6.10;87.40;;;4.93;66.29;96721.75;4931321;29;20422;-71
2022/04/21 02:17:05;;;;;;;12.10;8.25;;;6.10;87.80;;;4.98;66.51;96719.22;4931315;29;20542;-72
2022/04/21 02:19:32;;;;;;;11.80;7.63;;;6.10;87.90;;;4.94;66.62;96712.06;4931225;29;20416;-72
2022/04/21 02:21:58;;;;;;;11.98;7.00;;;6.10;88.20;;;4.93;66.54;96719.13;4930824;29;20422;-72
2022/04/21 02:24:24;;;;;;;10.60;7.50;;;6.10;88.40;;;4.89;66.87;96707.47;4929859;29;20522;-71
2022/04/21 02:26:51;;;;;;;9.57;7.10;;;6.00;88.30;;;4.86;66.77;96707.97;4937529;28;20458;-72
2022/04/21 02:29:17;;;;;;;10.13;7.32;;;6.00;88.50;;;4.83;67.02;96711.03;4972343;28;20433;-71
2022/04/21 02:31:43;;;;;;;9.10;7.25;;;6.00;88.70;;;4.81;67.02;96710.47;4941781;28;20464;-71
2022/04/21 02:34:09;;;;;;;8.88;7.63;;;6.00;88.90;;;4.79;67.36;96699.44;4983414;28;20803;-71
2022/04/21 02:36:35;;;;;;;9.90;8.07;;;5.90;89.30;;;4.78;67.45;96712.75;4950168;28;20467;-71
2022/04/21 02:39:01;;;;;;;9.50;7.40;;;5.90;89.50;;;4.76;67.36;96710.38;4949922;28;20414;-72
2022/04/21 02:41:27;;;;;;;9.60;7.50;;;5.90;89.50;;;4.71;67.45;96706.84;4949467;28;20434;-71
2022/04/21 02:43:54;;;;;;;8.68;7.53;;;5.90;90.00;;;4.66;67.68;96705.69;4950057;28;20457;-72
2022/04/21 02:46:24;;;;;;;10.32;7.75;;;5.80;90.10;;;4.64;67.97;96693.88;4949955;28;20968;-72
2022/04/21 02:48:50;;;;;;;9.63;7.70;;;5.80;90.30;;;4.60;68.38;96696.13;4949937;28;20651;-71
2022/04/21 02:51:16;;;;;;;9.23;7.90;;;5.80;90.40;;;4.58;68.18;96700.84;4949530;28;20410;-71
2022/04/21 02:59:12;;;;;;;10.88;8.68;;;5.70;90.60;;;4.55;68.45;96692.63;4949852;29;20406;-71
2022/04/21 03:01:38;;;;;;;8.87;7.97;;;5.70;90.60;;;4.50;68.30;96695.94;4949767;28;20433;-71
2022/04/21 03:04:04;;;;;;;8.77;7.82;;;5.70;90.70;;;4.46;68.86;96684.31;4949996;28;20418;-71
2022/04/21 03:06:30;;;;;;;9.85;8.82;;;5.60;90.80;;;4.44;68.48;96683.72;4949612;28;20428;-71
2022/04/21 03:08:56;;;;;;;9.38;8.38;;;5.60;90.90;;;4.40;68.67;96682.59;4949642;28;20406;-72
2022/04/21 03:11:22;;;;;;;10.55;7.78;;;5.60;91.00;;;4.39;68.63;96680.22;4949280;28;20442;-71
2022/04/21 03:13:47;;;;;;;11.07;8.70;;;5.50;91.00;;;4.35;69.02;96685.13;4949511;28;20421;-71
2022/04/21 03:16:15;;;;;;;10.15;8.55;;;5.50;91.20;;;4.33;69.27;96687.16;4949584;28;20410;-71
2022/04/21 03:18:40;;;;;;;10.77;8.80;;;5.50;91.40;;;4.31;69.52;96683.97;4949533;28;20481;-72
2022/04/21 03:26:35;;;;;;;10.48;8.50;;;5.50;91.60;;;4.24;69.45;96681.47;4950793;28;20456;-72
2022/04/21 03:29:01;;;;;;;11.07;9.37;;;5.40;91.60;;;4.27;69.50;96674.97;4955825;28;20497;-72
2022/04/21 03:31:28;;;;;;;9.30;8.30;;;5.40;91.60;;;4.21;69.29;96674.06;4955234;28;20429;-72
2022/04/21 03:33:54;;;;;;;9.53;8.53;;;5.40;91.60;;;4.20;69.48;96685.56;4954346;28;20779;-72
2022/04/21 03:36:21;;;;;;;12.27;9.63;;;5.40;91.70;;;4.18;69.56;96682.38;4955801;28;20406;-72
2022/04/21 03:38:46;;;;;;;12.13;9.52;;;5.30;91.80;;;4.15;69.91;96666.31;4955629;28;20406;-72
2022/04/21 03:41:12;;;;;;;10.43;9.23;;;5.30;92.10;;;4.14;70.22;96669.94;4955164;28;20410;-70
2022/04/21 03:43:39;;;;;;;14.30;11.07;;;5.30;92.20;;;4.20;70.16;96669.06;4955592;28;20880;-70
2022/04/21 03:46:05;;;;;;;10.50;9.40;;;5.30;92.60;;;4.09;70.30;96675.88;4955350;28;20501;-72
2022/04/21 03:48:32;;;;;;;11.53;9.47;;;5.20;92.30;;;4.08;70.45;96674.28;4955467;28;20519;-71
2022/04/21 03:50:59;;;;;;;13.15;9.55;;;5.20;92.50;;;4.04;70.59;96672.34;4955178;28;20425;-70
2022/04/21 03:53:25;;;;;;;11.35;9.13;;;5.20;92.60;;;4.04;70.68;96670.53;4955616;28;20448;-70
2022/04/21 03:55:51;;;;;;;14.73;10.60;;;5.20;92.60;;;4.13;70.77;96678.84;4955709;28;20860;-70
2022/04/21 03:58:17;;;;;;;11.38;9.52;;;5.30;92.60;;;4.04;70.61;96681.00;4955589;29;20768;-70
2022/04/21 04:00:43;;;;;;;11.43;9.63;;;5.20;92.50;;;4.01;70.62;96680.66;4953822;28;20505;-70
2022/04/21 04:03:08;;;;;;;14.02;9.60;;;5.20;92.60;;;3.99;70.60;96682.69;4954238;28;20449;-70
2022/04/21 04:05:36;;;;;;;13.13;10.10;;;5.10;92.70;;;3.96;71.08;96683.16;4955386;28;20980;-70
2022/04/21 04:10:53;;;;;;;14.98;10.23;;;5.10;92.90;;;3.87;71.47;96685.31;4954810;29;20405;-70
2022/04/21 04:13:18;;;;;;;12.55;10.00;;;5.00;93.20;;;3.86;71.42;96681.91;4955401;28;20891;-72
2022/04/21 04:15:48;;;;;;;11.38;9.77;;;5.00;93.30;;;3.85;71.64;96677.69;4955289;29;20412;-71
2022/04/21 04:18:15;;;;;;;12.25;10.60;;;5.00;93.40;;;3.83;71.79;96678.94;4954100;29;20784;-72
2022/04/21 04:20:42;;;;;;;14.77;11.40;;;5.00;93.60;;;3.84;72.08;96672.66;4954812;28;20448;-69
2022/04/21 04:23:08;;;;;;;15.60;12.25;;;5.00;93.70;;;3.94;72.24;96685.19;4955063;29;20406;-71
2022/04/21 04:25:35;;;;;;;12.33;10.67;;;5.00;93.90;;;3.85;72.33;96680.28;4955076;29;20448;-71
2022/04/21 04:28:03;;;;;;;12.45;10.98;;;5.00;93.90;;;3.84;72.14;96685.75;4955114;28;20406;-71
2022/04/21 04:30:29;;;;;;;12.15;9.80;;;5.00;93.90;;;3.85;72.38;96688.16;4954420;28;20414;-71
2022/04/21 04:32:55;;;;;;;12.85;10.85;;;5.00;94.00;;;3.86;72.15;96681.09;4954913;28;20922;-71
2022/04/21 04:35:21;;;;;;;13.33;10.43;;;5.00;94.00;;;3.85;72.38;96680.28;4955041;29;20416;-72
2022/04/21 04:37:49;;;;;;;12.20;10.73;;;5.00;94.10;;;3.86;72.45;96684.50;4954242;28;20417;-72
2022/04/21 04:40:17;;;;;;;14.50;11.03;;;5.00;94.10;;;3.86;72.19;96684.50;4950732;28;20445;-72
2022/04/21 04:42:42;;;;;;;14.13;11.10;;;5.00;94.20;;;3.85;72.57;96682.91;4964456;22;20449;-69
2022/04/21 04:47:53;;;;;;;16.88;11.35;;;5.00;94.40;;;3.88;72.50;96679.06;4961846;28;20606;-70
2022/04/21 04:50:20;;;;;;;14.67;11.30;;;5.00;94.50;;;3.90;72.89;96671.78;4959120;28;20501;-70
2022/04/21 04:52:47;;;;;;;15.38;12.05;;;5.00;94.70;;;3.93;73.02;96673.94;4967327;28;20416;-70
2022/04/21 04:55:15;;;;;;;12.63;10.70;;;5.10;94.80;;;3.89;73.46;96678.03;4970966;28;20412;-70
2022/04/21 04:57:40;;;;;;;12.32;11.02;;;5.00;94.90;;;3.88;73.38;96677.25;4970972;28;20414;-70
2022/04/21 05:00:08;;;;;;;14.75;12.32;;;5.10;94.90;;;3.92;73.58;96679.38;4970554;28;20749;-70
2022/04/21 05:02:34;;;;;;;14.07;11.55;;;5.10;95.00;;;3.95;73.57;96678.94;4965619;28;20420;-69
2022/04/21 05:05:00;;;;;;;15.07;11.02;;;5.10;95.00;;;4.01;73.35;96676.22;5004520;28;20416;-72
2022/04/21 05:07:27;;;;;;;12.77;10.77;;;5.20;95.40;;;4.02;73.63;96667.34;4973769;28;20424;-71
2022/04/21 05:09:52;;;;;;;13.27;10.95;;;5.20;95.20;;;4.03;73.65;96674.19;4961326;28;20417;-72
2022/04/21 05:12:21;;;;;;;12.50;10.73;;;5.20;95.20;;;4.07;73.61;96677.94;5028844;28;20413;-71
2022/04/21 05:14:48;;;;;;;11.25;9.90;;;5.30;95.40;;;4.13;74.04;96679.66;5052355;28;20501;-71
2022/04/21 05:17:14;;;;;;;13.45;10.95;;;5.30;95.40;;;4.23;73.62;96676.44;5052467;28;20397;-72
2022/04/21 05:19:41;;;;;;;12.45;10.68;;;5.40;95.40;;;4.26;73.74;96671.56;5052205;28;20420;-72
2022/04/21 05:22:12;;;;;;;12.68;11.10;;;5.40;95.40;;;4.32;73.63;96672.47;5051877;28;20773;-72
2022/04/21 05:24:38;;;;;;;12.82;10.65;;;5.50;95.40;;;4.39;73.23;96670.53;5052308;28;20402;-72
2022/04/21 05:27:05;;;;;;;12.35;11.02;;;5.60;95.30;;;4.46;73.10;96670.41;5052057;28;20421;-72
2022/04/21 05:32:22;;;;;;;14.32;11.80;;;5.70;95.00;;;4.62;72.81;96673.13;5050581;28;20913;-72
2022/04/21 05:34:49;;;;;;;12.77;10.73;;;5.80;95.00;;;4.62;72.83;96665.25;5052092;28;20389;-72
2022/04/21 05:37:16;;;;;;;13.20;11.15;;;5.80;94.90;;;4.64;72.54;96667.66;5024088;28;20441;-72
2022/04/21 05:39:42;;;;;;;12.77;11.17;;;5.80;94.90;;;4.70;72.65;96665.94;4962535;28;20771;-74
2022/04/21 05:42:12;;;;;;;14.48;11.60;;;5.90;94.90;;;4.79;72.39;96659.31;4949352;29;20417;-72
2022/04/21 05:44:40;;;;;;;13.07;11.30;;;5.90;94.90;;;4.86;72.28;96673.06;4945398;28;20412;-70
2022/04/21 05:47:08;;;;;;;14.38;11.48;;;6.00;94.80;;;4.94;72.31;96675.34;4946436;28;20417;-71
2022/04/21 05:49:35;;;;;;;12.77;11.05;;;6.00;94.70;;;5.01;71.98;96674.19;4935391;29;20491;-70
2022/04/21 05:52:06;;;;;;;14.82;10.80;;;6.10;94.60;;;5.08;72.02;96666.16;4950170;28;20463;-70
2022/04/21 05:54:33;;;;;;;12.73;11.43;;;6.20;94.50;;;5.18;71.69;96673.44;4950640;28;20442;-71
2022/04/21 05:57:00;;;;;;;13.35;10.52;;;6.30;94.50;;;5.23;71.86;96661.22;4950518;28;20410;-71
2022/04/21 05:59:26;;;;;;;12.57;11.27;;;6.30;94.50;;;5.31;71.62;96663.47;4950273;28;20407;-71
2022/04/21 06:01:53;;;;;;;14.60;12.65;;;6.40;94.40;;;5.39;71.53;96660.47;4947224;29;20406;-71
2022/04/21 06:04:22;;;;;;;14.52;12.52;;;6.50;94.30;;;5.46;71.55;96665.56;4946007;28;20768;-72
2022/04/21 06:06:48;;;;;;;16.00;12.18;;;6.50;94.30;;;5.55;71.60;96660.72;4942742;28;20459;-74
2022/04/21 06:09:14;;;;;;;13.70;11.10;;;6.60;94.30;;;5.61;71.20;96659.78;4941168;29;20852;-70
2022/04/21 06:11:40;;;;;;;17.67;12.90;;;6.70;94.20;;;5.70;71.61;96659.16;4936708;28;20452;-70
2022/04/21 06:14:06;;;;;;;15.13;12.80;;;6.80;94.40;;;5.79;71.53;96660.31;4950277;28;20410;-71
2022/04/21 06:16:32;;;;;;;15.00;12.82;;;6.80;94.30;;;5.88;71.55;96655.50;4950229;29;20421;-70
2022/04/21 06:18:59;;;;;;;18.77;13.57;;;6.90;94.30;;;5.96;71.38;96655.13;4950226;28;20962;-70
2022/04/21 06:21:25;;;;;;;17.20;12.98;;;7.00;94.30;;;6.04;71.11;96654.72;4949686;29;20937;-70
2022/04/21 06:23:51;;;;;;;17.33;13.00;;;7.10;94.10;;;6.11;70.85;96650.09;4947460;28;20410;-68
2022/04/21 06:26:17;;;;;;;15.23;13.33;;;7.20;94.00;;;6.21;70.67;96654.72;4950297;28;20441;-68
2022/04/21 06:28:43;;;;;;;17.58;14.15;;;7.20;93.80;;;6.28;70.55;96646.66;4950176;28;20568;-67
2022/04/21 06:31:10;;;;;;;14.38;12.32;;;7.30;93.70;;;6.35;69.97;96645.44;4949884;28;20821;-68
2022/04/21 06:33:36;;;;;;;15.05;13.18;;;7.40;93.50;;;6.42;69.53;96651.31;4950232;28;20413;-69
2022/04/21 06:36:06;;;;;;;15.15;12.35;;;7.40;93.20;;;6.48;69.33;96652.97;4950177;28;20402;-69
2022/04/21 06:38:32;;;;;;;15.00;11.55;;;7.50;93.10;;;6.55;69.27;96652.78;4946861;28;20547;-70
2022/04/21 06:40:58;;;;;;;15.75;12.77;;;7.50;92.90;;;6.60;68.94;96650.25;4939081;28;20988;-70
2022/04/21 06:48:53;;;;;;;16.45;13.25;;;7.70;92.40;;;6.80;68.29;96654.97;4941535;28;20516;-71
2022/04/21 06:51:20;;;;;;;16.30;12.98;;;7.80;92.20;;;6.85;67.89;96657.66;4962778;28;20408;-71
2022/04/21 06:53:46;;;;;;;18.90;12.88;;;7.90;92.00;;;6.90;67.54;96658.53;4963838;28;20422;-70
2022/04/21 06:56:12;;;;;;;16.52;13.57;;;7.90;91.80;;;6.99;67.10;96649.13;4943972;28;20408;-71
2022/04/21 06:58:39;;;;;;;18.23;14.00;;;8.00;91.60;;;7.05;66.75;96657.91;4963026;28;20913;-71
2022/04/21 07:01:05;;;;;;;17.00;13.55;;;8.00;91.30;;;7.12;66.75;96653.25;4955821;28;20418;-71
2022/04/21 07:03:31;;;;;;;15.67;12.47;;;8.10;91.20;;;7.19;66.61;96658.31;4949349;29;20418;-71
2022/04/21 07:05:56;;;;;;;15.73;12.85;;;8.20;91.10;;;7.27;66.17;96663.94;4949563;28;20461;-71
2022/04/21 07:08:24;;;;;;;17.10;14.10;;;8.20;90.90;;;7.32;65.58;96660.56;4949567;29;20428;-71
2022/04/21 07:10:50;;;;;;;16.42;12.80;;;8.30;90.40;;;7.45;65.66;96667.25;4949025;28;20422;-71
2022/04/21 07:13:16;;;;;;;20.83;13.75;;;8.40;90.40;;;7.47;64.55;96665.19;4949324;29;20476;-71
2022/04/21 07:15:42;;;;;;;16.27;13.18;;;8.40;89.90;;;7.54;64.64;96661.31;4949367;28;20410;-72
2022/04/21 07:18:08;;;;;;;18.48;12.55;;;8.50;89.20;;;7.64;64.49;96661.41;4949041;29;20515;-73
2022/04/21 07:20:34;;;;;;;15.35;13.05;;;8.60;89.10;;;7.66;64.11;96659.31;4948882;28;20921;-74
2022/04/21 07:23:00;;;;;;;16.37;12.67;;;8.60;88.30;;;7.72;63.45;96660.94;4949173;28;20448;-73
2022/04/21 07:25:28;;;;;;;16.58;13.20;;;8.70;87.90;;;7.77;63.26;96668.88;4956667;28;20854;-72
2022/04/21 07:27:54;;;;;;;17.70;12.90;;;8.70;87.20;;;7.86;62.91;96663.97;4960225;28;20436;-73
2022/04/21 07:30:20;;;;;;;19.17;13.25;;;8.80;86.70;;;7.91;63.06;96666.63;4944784;29;20422;-73
2022/04/21 07:32:47;;;;;;;15.07;12.32;;;8.90;86.70;;;7.98;63.33;96663.78;4950774;28;20577;-73
2022/04/21 07:35:13;;;;;;;16.30;13.15;;;8.90;87.00;;;8.05;63.33;96659.88;4948633;28;20873;-73
2022/04/21 07:37:39;;;;;;;19.67;13.43;;;9.00;87.20;;;8.09;62.96;96660.19;4941291;28;20821;-75
2022/04/21 07:40:06;;;;;;;1248.82;70.47;;;9.00;86.60;;;8.22;62.86;96662.38;4938941;28;20430;-73
2022/04/21 07:42:33;;;;;;;452.48;46.25;;;9.10;86.40;;;8.36;64.37;96660.91;4946934;28;20425;-74
2022/04/21 07:45:01;;;;;;;18.37;12.63;;;9.30;88.40;;;8.49;63.81;96652.56;4948447;28;20427;-75
2022/04/21 07:47:27;;;;;;;15.23;12.48;;;9.40;87.80;;;8.61;62.42;96654.22;4957713;28;20428;-79
2022/04/21 07:49:53;;;;;;;15.63;13.38;;;9.50;86.10;;;8.70;62.54;96652.69;4947809;28;20414;-77
2022/04/21 07:55:11;;;;;;;21.03;14.40;;;9.70;86.50;;;8.83;62.27;96653.00;4950827;28;20510;-76
2022/04/21 07:57:38;;;;;;;18.65;12.85;;;9.70;85.40;;;8.96;61.87;96650.94;4958843;28;20440;-76
2022/04/21 08:00:06;;;;;;;18.48;12.25;;;9.80;85.30;;;9.00;61.72;96647.53;4966244;28;20768;-76
2022/04/21 08:02:32;;;;;;;16.20;12.65;;;9.90;84.40;;;9.09;60.44;96653.13;4966704;28;20440;-76
2022/04/21 08:04:58;;;;;;;15.17;11.97;;;10.00;83.20;;;9.16;60.18;96649.19;4968003;28;20411;-76
2022/04/21 08:07:24;;;;;;;16.02;11.30;;;10.00;82.80;;;9.22;60.54;96647.34;4967128;28;20424;-76
2022/04/21 08:09:50;;;;;;;14.55;11.50;;;10.10;82.90;;;9.26;59.69;96649.19;4968065;28;20743;-75
2022/04/21 08:12:16;;;;;;;18.92;11.73;;;10.20;81.70;;;9.33;59.02;96648.94;4967832;28;20444;-76
2022/04/21 08:14:44;;;;;;;15.68;11.40;;;10.20;80.90;;;9.40;59.52;96646.84;4971448;28;20412;-77
2022/04/21 08:17:10;;;;;;;13.15;10.32;;;10.30;81.20;;;9.47;60.06;96644.72;4971390;28;20404;-76
2022/04/21 08:19:36;;;;;;;15.60;11.87;;;10.30;82.10;;;9.51;59.66;96645.81;4971233;28;20623;-77
2022/04/21 08:22:02;;;;;;;17.67;11.23;;;10.40;81.10;;;9.57;57.92;96652.69;4970934;28;20404;-76
2022/04/21 08:32:46;;;;;;;15.55;10.70;;;10.60;78.40;;;9.74;56.77;96641.88;4963712;28;20536;-77
2022/04/21 08:35:15;;;;;;;14.93;11.30;;;10.60;76.50;;;9.80;55.49;96638.19;4951944;29;20807;-78
2022/04/21 08:37:44;;;;;;;11.48;9.27;;;10.70;74.70;;;9.88;57.39;96631.56;4951792;29;20904;-77
2022/04/21 08:40:10;;;;;;;12.93;9.77;;;10.70;77.00;;;9.96;56.57;96636.31;4951257;28;20406;-77
2022/04/21 08:42:39;;;;;;;15.07;11.48;;;10.80;76.60;;;10.06;57.06;96633.69;4951543;29;20775;-77
2022/04/21 08:45:08;;;;;;;13.80;10.80;;;10.90;77.10;;;10.12;56.84;96629.97;4951752;29;20413;-78
2022/04/21 08:47:35;;;;;;;15.13;10.70;;;11.00;76.40;;;10.27;57.31;96624.69;4951653;29;20929;-77
2022/04/21 08:50:06;;;;;;;12.68;9.93;;;11.10;77.80;;;10.32;56.43;96634.47;4951652;28;20413;-78
2022/04/21 08:52:34;;;;;;;11.43;9.73;;;11.20;76.00;;;10.42;57.48;96637.09;4951384;28;20407;-76
2022/04/21 08:55:02;;;;;;;12.30;9.82;;;11.20;77.30;;;10.52;57.75;96631.00;4951603;28;20398;-77
2022/04/21 08:57:30;;;;;;;16.08;11.27;;;11.30;77.80;;;10.60;56.67;96631.22;4951556;29;20497;-77
2022/04/21 08:59:56;;;;;;;15.43;10.77;;;11.50;77.20;;;10.66;53.01;96626.72;4951525;28;20463;-78
2022/04/21 09:02:34;;;;;;;14.32;9.25;;;11.50;71.00;;;10.70;55.01;96633.06;4951014;28;20414;-77
2022/04/21 09:05:00;;;;;;;11.77;8.70;;;11.50;73.60;;;10.77;55.51;96633.56;4951249;29;20497;-78
2022/04/21 09:07:26;;;;;;;15.52;10.18;;;11.60;74.60;;;10.85;55.09;96628.50;4951207;29;20426;-78
2022/04/21 09:10:06;;;;;;;17.80;11.93;;;11.70;74.30;;;10.91;53.34;96623.19;4951949;28;20417;-77
2022/04/21 09:12:32;;;;;;;13.98;9.82;;;11.80;72.00;;;10.99;54.86;96626.06;4962313;28;20408;-78
2022/04/21 09:15:06;;;;;;;11.27;9.50;;;11.80;73.10;;;11.12;55.69;96630.78;4962415;28;20401;-79
2022/04/21 09:17:39;;;;;;;13.45;10.50;;;11.90;74.80;;;11.23;55.29;96627.00;4970558;28;20409;-78
2022/04/21 09:20:07;;;;;;;13.88;10.32;;;12.00;74.60;;;11.24;53.95;96623.28;4970398;28;20474;-77
2022/04/21 09:22:34;;;;;;;15.50;10.80;;;12.10;72.30;;;11.31;53.58;96622.97;4970230;28;20411;-77
2022/04/21 09:25:00;;;;;;;16.40;9.73;;;12.10;71.70;;;11.31;50.97;96616.91;4969882;28;20404;-77
2022/04/21 09:27:38;;;;;;;17.27;10.88;;;12.20;68.00;;;11.34;51.48;96619.00;4970348;28;20515;-78
2022/04/21 09:30:10;;;;;;;11.07;8.95;;;12.20;67.80;;;11.45;51.95;96618.66;4970188;28;20416;-78
2022/04/21 09:32:38;;;;;;;15.17;10.50;;;12.30;69.40;;;11.57;52.25;96615.69;4970411;28;20429;-78
2022/04/21 09:35:07;;;;;;;11.73;8.88;;;12.40;69.30;;;11.71;51.79;96621.16;4970336;28;20409;-78
2022/04/21 09:37:43;;;;;;;15.98;10.80;;;12.50;68.70;;;11.46;49.38;96614.94;4970269;28;20433;-78
2022/04/21 09:40:11;;;;;;;12.77;8.53;;;12.40;64.20;;;11.72;50.99;96607.63;4970938;28;20493;-78
2022/04/21 09:42:37;;;;;;;10.23;8.18;;;12.50;67.10;;;11.85;51.91;96614.97;4969873;28;20901;-78
2022/04/21 09:47:56;;;;;;;15.77;9.20;;;12.80;64.00;;;12.08;49.48;96604.69;4970160;28;20448;-78
2022/04/21 09:50:25;;;;;;;10.55;8.63;;;12.90;63.80;;;12.32;50.87;96600.22;4969814;28;20408;-79
2022/04/21 09:52:53;;;;;;;9.95;8.20;;;13.10;66.80;;;12.59;50.90;96591.69;4970064;28;20927;-77
2022/04/21 09:55:27;;;;;;;10.10;8.33;;;13.30;67.00;;;12.78;50.51;96585.34;4970147;28;20409;-78
2022/04/21 09:58:04;;;;;;;11.00;7.93;;;13.60;66.90;;;13.12;50.13;96579.88;4984956;28;20444;-78
2022/04/21 10:00:31;;;;;;;12.40;9.33;;;13.80;66.60;;;13.33;49.17;96579.63;4969565;28;21083;-79
2022/04/21 10:03:02;;;;;;;10.38;8.00;;;14.10;64.90;;;13.51;47.74;96574.31;4969981;28;20815;-79
2022/04/21 10:05:31;;;;;;;9.57;7.57;;;14.30;62.60;;;13.87;47.75;96563.88;4968626;28;20778;-79
2022/04/21 10:08:00;;;;;;;12.00;8.18;;;14.60;63.40;;;14.37;47.27;96577.38;4969788;28;20432;-78
2022/04/21 10:10:28;;;;;;;10.43;8.77;;;15.20;62.20;;;15.01;45.33;96560.41;4969383;28;20411;-78
2022/04/21 10:12:56;;;;;;;10.07;7.13;;;16.00;59.10;;;15.90;44.63;96565.06;4969687;28;20407;-78
2022/04/21 10:15:23;;;;;;;7.18;5.38;;;16.70;58.10;;;17.13;43.22;96571.41;4969776;28;20404;-77
2022/04/21 10:17:49;;;;;;;7.78;5.72;;;17.80;56.90;;;18.28;41.25;96551.94;4969693;28;20416;-78
2022/04/21 10:20:17;;;;;;;8.20;6.13;;;19.00;53.90;;;19.03;37.82;96553.03;4969233;28;20408;-77
2022/04/21 10:22:44;;;;;;;7.53;5.18;;;19.80;48.00;;;19.79;35.76;96555.47;4969623;28;20929;-78
2022/04/21 10:25:10;;;;;;;4.28;3.78;;;20.50;46.20;;;20.32;35.35;96559.97;4969726;28;20414;-78
2022/04/21 10:27:38;;;;;;;5.97;3.83;;;21.00;45.90;;;20.74;34.59;96557.94;4969650;28;20424;-76
2022/04/21 10:30:13;;;;;;;5.28;4.10;;;21.40;45.40;;;21.29;34.47;96557.31;4969554;28;20507;-77
2022/04/21 10:32:53;;;;;;;5.73;5.00;;;21.90;44.30;;;21.19;32.04;96545.16;4969651;28;20401;-77
2022/04/21 10:35:48;;;;;;;7.80;4.20;;;22.00;40.90;;;21.75;32.20;96544.41;4969720;28;20833;-77
2022/04/21 10:38:21;;;;;;;7.82;4.40;;;22.40;41.60;;;21.34;32.16;96543.66;4968962;28;20454;-78
2022/04/21 10:41:02;;;;;;;5.23;3.90;;;22.20;40.40;;;20.98;33.03;96539.06;4969309;28;20409;-77
2022/04/21 10:44:02;;;;;;;3.75;3.42;;;21.70;42.30;;;21.73;32.87;96528.56;4975035;22;20437;-73
2022/04/21 10:46:31;;;;;;;4.97;3.70;;;22.10;42.60;;;22.60;31.16;96530.44;4951923;28;20407;-72
2022/04/21 10:48:59;;;;;;;6.20;4.25;;;23.10;40.40;;;23.46;30.98;96531.22;4958977;28;20479;-73
2022/04/21 10:58:50;;;;;;;3.80;3.40;;;26.30;35.00;;;26.66;26.61;96518.50;4939351;29;20500;-74
2022/04/21 11:01:28;;;;;;;3.42;2.78;;;27.30;32.70;;;27.03;23.85;96512.97;4930922;29;20506;-75
2022/04/21 11:04:19;;;;;;;4.67;3.87;;;27.60;31.00;;;27.33;23.50;96508.09;4938470;28;20754;-74
2022/04/21 11:06:47;;;;;;;3.70;2.67;;;28.00;30.00;;;27.90;22.70;96505.59;4925778;29;20428;-73
2022/04/21 11:09:46;;;;;;;5.07;2.90;;;28.50;29.50;;;28.53;22.58;96509.59;4927724;28;20793;-74
2022/04/21 11:12:16;;;;;;;6.35;4.05;;;29.10;29.40;;;28.08;21.29;96513.81;4924865;28;20428;-73
2022/04/21 11:14:43;;;;;;;5.45;3.58;;;29.20;27.50;;;27.02;21.49;96499.75;4922542;29;20809;-74
2022/04/21 11:17:09;;;;;;;3.75;3.25;;;28.20;28.00;;;25.78;23.01;96491.31;4922583;28;20845;-74